Time;durP1;ratioP1;P1;durP2;ratioP2;P2;SDS_P1;SDS_P2;PMS_P1;PMS_P2;Temp;Humidity;BMP_temperature;BMP_pressure;BME280_temperature;BME280_humidity;BME280_pressure;Samples;Min_cycle;Max_cycle;Signal;HPM_P1;HPM_P2
2021/04/10 00:00:26;;;;;;;9.05;7.45;;;10.70;66.40;;;;;;4896305;29;20048;-78
2021/04/10 00:02:52;;;;;;;9.23;7.82;;;10.60;66.80;;;;;;4897534;29;20483;-78
2021/04/10 00:05:21;;;;;;;13.20;8.43;;;10.60;67.60;;;;;;4899261;29;20483;-78
2021/04/10 00:07:46;;;;;;;11.27;8.38;;;10.60;68.30;;;;;;4906495;29;20075;-78
2021/04/10 00:10:17;;;;;;;13.80;8.38;;;10.60;68.30;;;;;;4896330;29;20123;-78
2021/04/10 00:12:43;;;;;;;10.45;8.13;;;10.60;68.70;;;;;;4880269;29;20467;-78
2021/04/10 00:15:13;;;;;;;11.77;7.72;;;10.50;69.20;;;;;;4896366;29;20131;-78
2021/04/10 00:17:38;;;;;;;10.75;8.00;;;10.50;69.20;;;;;;4899818;29;20561;-78
2021/04/10 00:20:12;;;;;;;12.40;8.55;;;10.50;69.10;;;;;;4902472;29;20041;-78
2021/04/10 00:22:38;;;;;;;13.48;9.00;;;10.50;69.40;;;;;;4881108;29;20029;-77
2021/04/10 00:25:05;;;;;;;11.13;8.63;;;10.50;69.90;;;;;;4895950;29;20577;-78
2021/04/10 00:27:31;;;;;;;13.50;8.90;;;10.50;70.30;;;;;;4902634;29;20028;-78
2021/04/10 00:29:57;;;;;;;13.68;8.77;;;10.50;70.30;;;;;;4897626;29;20041;-78
2021/04/10 00:32:25;;;;;;;12.57;8.45;;;10.40;70.10;;;;;;4897858;29;20398;-77
2021/04/10 00:34:50;;;;;;;16.27;9.15;;;10.40;70.20;;;;;;4897763;29;20041;-77
2021/04/10 00:37:16;;;;;;;13.27;8.57;;;10.40;70.30;;;;;;4886974;29;20362;-78
2021/04/10 00:39:42;;;;;;;11.88;8.98;;;10.40;70.40;;;;;;4906348;29;20039;-77
2021/04/10 00:42:08;;;;;;;11.68;8.57;;;10.40;70.60;;;;;;4901963;29;20036;-78
2021/04/10 00:44:33;;;;;;;13.80;9.35;;;10.40;70.60;;;;;;4896230;29;20119;-77
2021/04/10 00:46:59;;;;;;;12.85;9.75;;;10.40;70.90;;;;;;4897373;29;20534;-77
2021/04/10 00:49:25;;;;;;;11.23;9.30;;;10.30;71.10;;;;;;4903193;29;20043;-78
2021/04/10 00:51:51;;;;;;;13.43;9.65;;;10.30;71.40;;;;;;4895136;29;20470;-78
2021/04/10 00:54:18;;;;;;;12.52;9.50;;;10.30;71.50;;;;;;4894827;29;20039;-78
2021/04/10 00:56:44;;;;;;;11.52;9.38;;;10.30;71.50;;;;;;4909593;29;20051;-81
2021/04/10 00:59:09;;;;;;;11.98;9.07;;;10.30;71.60;;;;;;4899899;29;20599;-71
2021/04/10 01:01:35;;;;;;;13.23;9.70;;;10.30;71.50;;;;;;4906687;29;20049;-71
2021/04/10 01:04:01;;;;;;;15.07;9.63;;;10.30;71.70;;;;;;4884014;29;20033;-72
2021/04/10 01:06:27;;;;;;;13.65;9.85;;;10.30;72.00;;;;;;4902717;29;20060;-71
2021/04/10 01:08:53;;;;;;;12.15;9.23;;;10.20;72.20;;;;;;4903654;29;20029;-71
2021/04/10 01:11:36;;;;;;;13.93;9.88;;;10.20;72.50;;;;;;4911566;29;20067;-71
2021/04/10 01:14:30;;;;;;;12.57;10.07;;;10.20;72.80;;;;;;4898746;29;20035;-71
2021/04/10 01:17:00;;;;;;;12.35;9.20;;;10.20;72.90;;;;;;4904351;29;20044;-71
2021/04/10 01:20:03;;;;;;;12.93;9.57;;;10.10;73.00;;;;;;4899018;29;20037;-72
2021/04/10 01:22:47;;;;;;;10.98;9.45;;;10.10;73.60;;;;;;4910277;29;20035;-71
2021/04/10 01:25:33;;;;;;;15.40;9.75;;;10.10;73.70;;;;;;4899787;29;20115;-71
2021/04/10 01:28:00;;;;;;;12.38;9.77;;;10.10;73.70;;;;;;4913842;29;20028;-71
2021/04/10 01:30:33;;;;;;;14.00;10.27;;;10.00;73.50;;;;;;4898729;29;20048;-72
2021/04/10 01:33:06;;;;;;;13.45;10.55;;;10.00;73.80;;;;;;4899802;29;20029;-72
2021/04/10 01:35:39;;;;;;;13.55;10.18;;;10.00;73.90;;;;;;4899928;29;20393;-71
2021/04/10 01:38:08;;;;;;;14.65;10.70;;;10.00;74.10;;;;;;4911715;29;20386;-71
2021/04/10 01:40:35;;;;;;;13.20;10.15;;;10.00;74.20;;;;;;4901033;29;20120;-72
2021/04/10 01:43:02;;;;;;;15.40;10.93;;;10.00;74.30;;;;;;4898345;29;20024;-71
2021/04/10 01:45:29;;;;;;;13.90;11.10;;;10.00;74.30;;;;;;4903063;29;20061;-71
2021/04/10 01:48:05;;;;;;;15.35;10.48;;;10.00;74.50;;;;;;4915384;29;20083;-71
2021/04/10 01:50:32;;;;;;;14.65;10.45;;;10.00;74.70;;;;;;4902536;29;20111;-71
2021/04/10 01:52:58;;;;;;;18.98;12.52;;;10.00;74.60;;;;;;4885615;29;20463;-71
2021/04/10 01:55:25;;;;;;;16.98;11.82;;;10.00;74.60;;;;;;4898155;29;20053;-71
2021/04/10 01:57:51;;;;;;;16.67;10.90;;;10.00;74.80;;;;;;4887523;29;20063;-71
2021/04/10 02:00:20;;;;;;;13.52;11.48;;;10.00;74.90;;;;;;4900392;29;20040;-71
2021/04/10 02:02:46;;;;;;;14.13;11.40;;;10.00;75.00;;;;;;4902479;29;20040;-71
2021/04/10 02:05:13;;;;;;;13.88;11.23;;;10.00;75.10;;;;;;4910800;29;20394;-72
2021/04/10 02:07:43;;;;;;;14.93;11.18;;;9.90;75.20;;;;;;4893399;29;20036;-71
2021/04/10 02:10:12;;;;;;;16.58;11.85;;;9.90;75.20;;;;;;4897790;29;20460;-71
2021/04/10 02:12:38;;;;;;;14.88;11.57;;;9.90;75.10;;;;;;4902982;29;20044;-72
2021/04/10 02:15:05;;;;;;;16.15;11.55;;;9.90;75.20;;;;;;4898255;29;20041;-72
2021/04/10 02:17:31;;;;;;;16.92;12.43;;;9.80;75.40;;;;;;4916271;29;20063;-72
2021/04/10 02:19:57;;;;;;;15.70;11.25;;;9.70;75.40;;;;;;4908179;29;20705;-72
2021/04/10 02:22:25;;;;;;;14.13;10.93;;;9.70;76.10;;;;;;4900933;29;20032;-72
2021/04/10 02:24:51;;;;;;;17.05;10.75;;;9.70;75.30;;;;;;4905310;29;20442;-72
2021/04/10 02:27:17;;;;;;;14.50;10.35;;;9.70;75.30;;;;;;4907305;29;20112;-72
2021/04/10 02:29:43;;;;;;;17.05;12.35;;;9.70;75.30;;;;;;4897932;29;20068;-71
2021/04/10 02:32:28;;;;;;;14.15;11.25;;;9.60;75.40;;;;;;4912740;29;20033;-72
2021/04/10 02:35:02;;;;;;;17.13;12.05;;;9.60;75.80;;;;;;4879044;29;20029;-72
2021/04/10 02:37:32;;;;;;;15.45;11.80;;;9.50;76.00;;;;;;4898052;29;20037;-71
2021/04/10 02:40:03;;;;;;;17.45;12.75;;;9.50;76.30;;;;;;4913828;29;20040;-72
2021/04/10 02:42:31;;;;;;;17.08;12.00;;;9.40;76.90;;;;;;4880152;29;20029;-72
2021/04/10 02:44:59;;;;;;;22.95;12.20;;;9.30;76.80;;;;;;4891138;29;20043;-71
2021/04/10 02:47:26;;;;;;;15.13;9.73;;;9.30;77.20;;;;;;4896377;29;20069;-71
2021/04/10 02:49:56;;;;;;;18.98;12.85;;;9.30;77.20;;;;;;4898782;29;20092;-71
2021/04/10 02:52:33;;;;;;;18.38;11.70;;;9.20;77.60;;;;;;4898735;29;20462;-72
2021/04/10 02:55:02;;;;;;;19.02;12.98;;;9.20;77.90;;;;;;4903322;29;20028;-71
2021/04/10 02:57:29;;;;;;;16.55;11.80;;;9.20;78.30;;;;;;4896676;29;20044;-71
2021/04/10 02:59:58;;;;;;;17.80;12.27;;;9.10;78.40;;;;;;4881967;29;20124;-71
2021/04/10 03:02:24;;;;;;;20.23;12.70;;;9.00;78.60;;;;;;4905281;29;20073;-71
2021/04/10 03:04:51;;;;;;;17.33;12.98;;;9.00;78.90;;;;;;4898111;29;20028;-71
2021/04/10 03:07:18;;;;;;;17.50;12.48;;;9.00;79.10;;;;;;4899663;29;20056;-72
2021/04/10 03:09:46;;;;;;;15.27;11.85;;;9.00;79.40;;;;;;4892925;29;20064;-71
2021/04/10 03:12:16;;;;;;;21.65;13.52;;;8.90;79.20;;;;;;4898272;29;20108;-71
2021/04/10 03:14:42;;;;;;;26.50;14.63;;;9.00;79.50;;;;;;4907667;29;20028;-72
2021/04/10 03:17:15;;;;;;;22.48;14.45;;;8.90;79.50;;;;;;4898236;29;20510;-71
2021/04/10 03:19:43;;;;;;;19.75;12.82;;;8.90;79.80;;;;;;4913896;29;20020;-71
2021/04/10 03:22:10;;;;;;;25.80;15.80;;;8.90;79.70;;;;;;4897832;29;20080;-71
2021/04/10 03:24:37;;;;;;;19.42;13.57;;;8.90;79.90;;;;;;4896908;29;20033;-71
2021/04/10 03:27:03;;;;;;;20.33;14.25;;;8.90;79.90;;;;;;4906786;29;20025;-71
2021/04/10 03:29:30;;;;;;;21.80;14.85;;;8.90;80.10;;;;;;4899192;29;20033;-71
2021/04/10 03:31:57;;;;;;;21.85;12.70;;;8.90;80.30;;;;;;4900956;29;20033;-71
2021/04/10 03:34:24;;;;;;;20.45;13.57;;;8.90;80.40;;;;;;4901504;29;20037;-71
2021/04/10 03:36:51;;;;;;;21.33;14.48;;;8.90;80.40;;;;;;4899070;29;20051;-71
2021/04/10 03:39:17;;;;;;;21.77;13.52;;;8.90;80.40;;;;;;4904053;29;20027;-71
2021/04/10 03:41:43;;;;;;;17.55;13.27;;;8.90;80.40;;;;;;4900256;29;20036;-71
2021/04/10 03:44:08;;;;;;;23.73;14.00;;;8.90;80.60;;;;;;4902735;29;20115;-71
2021/04/10 03:46:35;;;;;;;20.35;14.38;;;8.90;80.60;;;;;;4903653;29;20032;-71
2021/04/10 03:49:05;;;;;;;21.67;13.63;;;8.90;80.70;;;;;;4900310;29;20160;-71
2021/04/10 03:51:31;;;;;;;28.27;14.57;;;8.80;81.10;;;;;;4877960;29;20056;-72
2021/04/10 03:53:58;;;;;;;20.95;13.48;;;8.80;81.10;;;;;;4896624;29;20061;-71
2021/04/10 03:56:23;;;;;;;21.95;14.65;;;8.80;81.10;;;;;;4906560;29;20394;-71
2021/04/10 03:58:49;;;;;;;20.55;14.43;;;8.80;81.20;;;;;;4900910;29;20040;-71
2021/04/10 04:01:15;;;;;;;22.58;14.30;;;8.80;81.40;;;;;;4898936;29;20480;-71
2021/04/10 04:03:41;;;;;;;22.08;13.98;;;8.80;81.40;;;;;;4896268;29;20123;-71
2021/04/10 04:06:06;;;;;;;23.88;15.60;;;8.80;81.50;;;;;;4911014;29;20435;-71
2021/04/10 04:08:32;;;;;;;22.65;13.85;;;8.70;81.60;;;;;;4896469;29;20103;-72
2021/04/10 04:10:58;;;;;;;23.42;15.07;;;8.70;81.80;;;;;;4907083;29;20029;-72
2021/04/10 04:13:23;;;;;;;21.83;14.88;;;8.70;82.00;;;;;;4897537;29;20561;-72
2021/04/10 04:15:49;;;;;;;21.25;15.10;;;8.70;82.30;;;;;;4890536;29;20040;-71
2021/04/10 04:18:15;;;;;;;28.35;15.60;;;8.60;82.50;;;;;;4896717;29;20557;-71
2021/04/10 04:20:40;;;;;;;29.33;14.65;;;8.60;82.60;;;;;;4880435;29;20040;-71
2021/04/10 04:23:06;;;;;;;23.77;14.65;;;8.50;82.60;;;;;;4896956;29;20472;-72
2021/04/10 04:25:32;;;;;;;27.42;15.95;;;8.50;82.80;;;;;;4898873;29;20113;-71
2021/04/10 04:28:00;;;;;;;23.48;15.75;;;8.50;82.90;;;;;;4899357;29;20031;-71
2021/04/10 04:30:25;;;;;;;31.33;17.40;;;8.50;83.00;;;;;;4877733;29;20047;-71
2021/04/10 04:32:51;;;;;;;31.48;18.13;;;8.50;83.30;;;;;;4887936;29;20123;-71
2021/04/10 04:35:17;;;;;;;29.65;17.67;;;8.40;83.50;;;;;;4899673;29;20084;-71
2021/04/10 04:37:42;;;;;;;33.80;17.85;;;8.40;83.60;;;;;;4899021;29;20433;-71
2021/04/10 04:40:09;;;;;;;29.23;16.92;;;8.30;83.70;;;;;;4911150;29;20043;-71
2021/04/10 04:42:35;;;;;;;29.15;15.30;;;8.30;83.80;;;;;;4900952;29;20031;-71
2021/04/10 04:45:00;;;;;;;25.60;15.95;;;8.30;83.90;;;;;;4904965;29;20404;-71
2021/04/10 04:47:26;;;;;;;29.70;17.40;;;8.30;84.00;;;;;;4905358;29;20033;-71
2021/04/10 04:49:52;;;;;;;23.27;14.60;;;8.30;84.10;;;;;;4901879;29;20379;-71
2021/04/10 04:52:17;;;;;;;26.55;16.67;;;8.20;84.00;;;;;;4903246;29;20068;-71
2021/04/10 04:54:43;;;;;;;26.75;15.90;;;8.30;84.00;;;;;;4899762;29;20032;-71
2021/04/10 04:57:09;;;;;;;24.77;17.13;;;8.30;84.00;;;;;;4903189;29;20053;-71
2021/04/10 04:59:34;;;;;;;36.67;19.13;;;8.30;84.00;;;;;;4900604;29;20390;-71
2021/04/10 05:02:00;;;;;;;27.75;18.05;;;8.30;84.10;;;;;;4903146;29;20044;-71
2021/04/10 05:04:25;;;;;;;27.55;16.88;;;8.30;84.00;;;;;;4900192;29;20036;-71
2021/04/10 05:06:51;;;;;;;28.85;17.40;;;8.30;84.10;;;;;;4901001;29;20122;-71
2021/04/10 05:09:17;;;;;;;23.95;16.25;;;8.30;84.00;;;;;;4899055;29;20089;-71
2021/04/10 05:11:42;;;;;;;28.27;17.10;;;8.30;84.00;;;;;;4903840;29;20091;-71
2021/04/10 05:14:09;;;;;;;27.02;16.50;;;8.30;84.10;;;;;;4899447;29;20107;-71
2021/04/10 05:16:34;;;;;;;25.10;15.50;;;8.30;84.10;;;;;;4901026;29;20442;-72
2021/04/10 05:19:00;;;;;;;26.75;15.75;;;8.30;84.00;;;;;;4900055;29;20116;-71
2021/04/10 05:21:26;;;;;;;21.88;14.45;;;8.40;84.10;;;;;;4899005;29;20177;-71
2021/04/10 05:23:52;;;;;;;25.13;16.20;;;8.30;84.10;;;;;;4911908;29;20040;-71
2021/04/10 05:26:18;;;;;;;32.83;18.38;;;8.30;84.30;;;;;;4907814;29;20032;-71
2021/04/10 05:28:43;;;;;;;25.40;16.25;;;8.30;84.40;;;;;;4914136;29;20031;-72
2021/04/10 05:31:09;;;;;;;23.08;15.43;;;8.30;84.50;;;;;;4899669;29;20085;-71
2021/04/10 05:33:35;;;;;;;26.17;16.35;;;8.30;84.60;;;;;;4898687;29;20040;-71
2021/04/10 05:36:01;;;;;;;25.98;14.98;;;8.30;84.60;;;;;;4901378;29;20494;-71
2021/04/10 05:38:27;;;;;;;31.65;18.45;;;8.30;85.20;;;;;;4899810;29;20036;-71
2021/04/10 05:40:53;;;;;;;25.33;16.13;;;8.30;84.60;;;;;;4913258;29;20028;-71
2021/04/10 05:43:19;;;;;;;31.17;16.42;;;8.30;84.60;;;;;;4902355;29;20024;-71
2021/04/10 05:45:47;;;;;;;30.73;16.20;;;8.40;84.60;;;;;;4902448;29;20028;-71
2021/04/10 05:48:13;;;;;;;34.70;18.00;;;8.40;84.60;;;;;;4900070;29;20045;-72
2021/04/10 05:50:39;;;;;;;24.83;16.30;;;8.40;84.60;;;;;;4906279;29;20029;-71
2021/04/10 05:53:04;;;;;;;27.23;16.83;;;8.40;84.60;;;;;;4898856;29;20049;-72
2021/04/10 05:55:30;;;;;;;29.08;17.65;;;8.40;84.50;;;;;;4899700;29;20127;-71
2021/04/10 05:57:56;;;;;;;30.75;15.73;;;8.40;84.50;;;;;;4918555;29;20036;-71
2021/04/10 06:00:22;;;;;;;27.83;16.67;;;8.40;84.50;;;;;;4889227;29;20043;-71
2021/04/10 06:02:51;;;;;;;27.55;16.70;;;8.50;84.50;;;;;;4899454;29;20033;-72
2021/04/10 06:05:19;;;;;;;;;;;8.40;84.60;;;;;;4898367;29;20087;-71
2021/04/10 06:07:45;;;;;;;26.35;16.05;;;8.40;84.50;;;;;;4898052;29;19916;-71
2021/04/10 06:10:11;;;;;;;25.92;14.60;;;8.40;84.70;;;;;;4906641;29;20056;-71
2021/04/10 06:12:36;;;;;;;30.30;16.75;;;8.40;84.50;;;;;;4914761;29;20063;-72
2021/04/10 06:15:05;;;;;;;23.50;15.82;;;8.50;84.40;;;;;;4907644;29;20119;-71
2021/04/10 06:17:30;;;;;;;21.77;15.57;;;8.50;84.40;;;;;;4895237;29;20036;-71
2021/04/10 06:19:56;;;;;;;25.63;15.85;;;8.50;84.40;;;;;;4907537;29;20797;-71
2021/04/10 06:22:21;;;;;;;24.83;17.15;;;8.50;84.30;;;;;;4882478;29;20040;-71
2021/04/10 06:24:47;;;;;;;29.45;15.38;;;8.60;84.30;;;;;;4899495;29;20115;-72
2021/04/10 06:27:13;;;;;;;28.08;16.10;;;8.60;84.20;;;;;;4898515;29;20036;-72
2021/04/10 06:29:38;;;;;;;22.42;14.45;;;8.60;84.20;;;;;;4905245;29;20390;-72
2021/04/10 06:32:04;;;;;;;22.80;15.27;;;8.60;84.10;;;;;;4882218;29;20036;-72
2021/04/10 06:34:30;;;;;;;30.70;16.15;;;8.60;84.10;;;;;;4897574;29;20402;-72
2021/04/10 06:36:55;;;;;;;31.33;17.08;;;8.60;84.30;;;;;;4882091;29;20184;-71
2021/04/10 06:39:22;;;;;;;26.13;15.32;;;8.50;84.30;;;;;;4881921;29;20070;-71
2021/04/10 06:41:48;;;;;;;23.88;15.55;;;8.50;84.40;;;;;;4897592;29;20095;-72
2021/04/10 06:44:13;;;;;;;25.02;16.63;;;8.50;84.50;;;;;;4913156;29;20119;-72
2021/04/10 06:46:39;;;;;;;25.75;15.93;;;8.60;84.50;;;;;;4881752;29;20417;-72
2021/04/10 06:49:08;;;;;;;21.98;14.52;;;8.60;84.40;;;;;;4897311;29;20076;-72
2021/04/10 06:51:37;;;;;;;28.13;17.17;;;8.60;84.30;;;;;;4896952;29;20035;-72
2021/04/10 06:54:06;;;;;;;25.15;15.90;;;8.70;84.40;;;;;;4899194;29;20028;-71
2021/04/10 06:56:36;;;;;;;26.13;16.77;;;8.70;84.30;;;;;;4897357;29;20127;-72
2021/04/10 06:59:14;;;;;;;;;;;8.60;84.20;;;;;;4882621;29;20056;-72
2021/04/10 07:01:41;;;;;;;25.77;15.95;;;8.60;84.10;;;;;;4905971;29;19919;-71
2021/04/10 07:04:11;;;;;;;31.40;17.45;;;8.60;84.20;;;;;;4905076;29;20385;-71
2021/04/10 07:06:59;;;;;;;26.73;16.38;;;8.60;84.80;;;;;;4901983;29;20455;-72
2021/04/10 07:09:25;;;;;;;26.90;16.60;;;8.60;84.20;;;;;;4903101;29;20059;-77
2021/04/10 07:11:54;;;;;;;30.38;18.80;;;8.60;84.00;;;;;;4897221;29;20092;-75
2021/04/10 07:14:20;;;;;;;29.08;17.65;;;8.60;84.10;;;;;;4913693;29;20059;-78
2021/04/10 07:16:46;;;;;;;32.47;19.20;;;8.70;84.10;;;;;;4910271;29;20103;-78
2021/04/10 07:19:12;;;;;;;31.05;19.38;;;8.70;83.90;;;;;;4894467;29;20131;-77
2021/04/10 07:21:39;;;;;;;31.25;19.75;;;8.70;83.90;;;;;;4907842;29;20493;-77
2021/04/10 07:24:05;;;;;;;28.95;18.60;;;8.60;83.90;;;;;;4897109;29;20545;-78
2021/04/10 07:26:49;;;;;;;32.55;20.15;;;8.60;83.90;;;;;;4897225;29;20047;-77
2021/04/10 07:29:47;;;;;;;32.83;18.83;;;8.60;84.00;;;;;;4909402;29;20032;-77
2021/04/10 07:32:22;;;;;;;36.83;19.55;;;8.60;84.00;;;;;;4911332;29;20453;-78
2021/04/10 07:34:47;;;;;;;38.60;21.63;;;8.60;84.00;;;;;;4900546;29;20164;-77
2021/04/10 07:37:30;;;;;;;30.55;20.17;;;8.60;83.90;;;;;;4897870;29;20103;-78
2021/04/10 07:39:56;;;;;;;33.70;19.40;;;8.50;84.00;;;;;;4902386;29;20031;-77
2021/04/10 07:42:28;;;;;;;38.65;21.77;;;8.50;84.00;;;;;;4898597;29;20029;-77
2021/04/10 07:44:55;;;;;;;38.42;21.10;;;8.50;84.00;;;;;;4898079;29;20056;-78
2021/04/10 07:47:39;;;;;;;40.33;21.50;;;8.50;84.00;;;;;;4906411;29;20028;-78
2021/04/10 07:50:20;;;;;;;32.35;21.70;;;8.50;84.30;;;;;;4898652;29;20087;-72
2021/04/10 07:52:46;;;;;;;34.30;20.50;;;8.50;84.30;;;;;;4882682;29;20033;-72
2021/04/10 07:55:33;;;;;;;29.95;20.02;;;8.60;84.30;;;;;;4898673;29;20029;-73
2021/04/10 07:58:17;;;;;;;40.50;22.15;;;8.60;84.40;;;;;;4902373;29;20027;-73
2021/04/10 08:00:43;;;;;;;32.95;19.83;;;8.50;84.60;;;;;;4908852;29;20036;-73
2021/04/10 08:03:22;;;;;;;29.77;18.27;;;8.60;84.60;;;;;;4901301;29;20057;-72
2021/04/10 08:05:47;;;;;;;37.70;19.85;;;8.60;84.80;;;;;;4903394;29;20080;-73
2021/04/10 08:08:24;;;;;;;33.15;21.08;;;8.70;84.60;;;;;;4901587;29;20029;-73
2021/04/10 08:11:01;;;;;;;38.03;22.70;;;8.70;84.80;;;;;;4904090;29;20028;-73
2021/04/10 08:13:27;;;;;;;42.53;23.77;;;8.80;84.70;;;;;;4898862;29;20033;-73
2021/04/10 08:16:13;;;;;;;37.10;22.00;;;8.80;84.50;;;;;;4903401;29;20048;-74
2021/04/10 08:18:46;;;;;;;34.08;22.63;;;9.00;84.60;;;;;;4916633;29;20115;-74
2021/04/10 08:21:19;;;;;;;37.45;20.50;;;9.00;84.50;;;;;;4900897;29;20027;-73
2021/04/10 08:23:46;;;;;;;39.85;23.23;;;9.00;84.20;;;;;;4912905;29;20034;-74
2021/04/10 08:26:13;;;;;;;38.55;22.85;;;9.10;84.10;;;;;;4910954;29;20051;-74
2021/04/10 08:28:40;;;;;;;61.15;24.95;;;9.10;84.10;;;;;;4901330;29;20431;-73
2021/04/10 08:31:05;;;;;;;41.75;22.05;;;9.10;84.20;;;;;;4900550;29;20040;-74
2021/04/10 08:33:33;;;;;;;45.75;26.17;;;9.10;84.30;;;;;;4902755;29;20089;-74
2021/04/10 08:36:02;;;;;;;35.17;21.90;;;9.10;84.50;;;;;;4891088;29;20071;-74
2021/04/10 08:38:31;;;;;;;31.23;21.88;;;9.10;84.60;;;;;;4884706;29;20132;-74
2021/04/10 08:40:59;;;;;;;43.65;25.50;;;9.20;84.50;;;;;;4884626;29;20044;-81
2021/04/10 08:43:26;;;;;;;35.13;23.53;;;9.20;84.40;;;;;;4902631;29;20465;-83
2021/04/10 08:45:54;;;;;;;34.83;22.83;;;9.30;84.30;;;;;;4899893;29;20280;-83
2021/04/10 08:48:22;;;;;;;36.45;24.25;;;9.30;84.30;;;;;;4900813;29;20024;-83
2021/04/10 08:50:51;;;;;;;44.55;26.05;;;9.30;84.40;;;;;;4907762;29;20048;-83
2021/04/10 08:53:27;;;;;;;34.72;23.33;;;9.30;84.50;;;;;;4900890;29;20025;-83
2021/04/10 08:55:53;;;;;;;39.33;26.98;;;9.30;84.60;;;;;;4900835;29;20401;-83
2021/04/10 08:58:24;;;;;;;39.03;24.25;;;9.30;84.60;;;;;;4910785;29;20514;-84
2021/04/10 09:01:01;;;;;;;43.90;28.75;;;9.30;84.80;;;;;;4919545;29;20056;-83
2021/04/10 09:03:56;;;;;;;38.85;29.10;;;9.20;84.90;;;;;;4919631;29;20047;-83
2021/04/10 09:06:33;;;;;;;41.40;27.42;;;9.20;85.10;;;;;;4915180;29;20083;-84
2021/04/10 09:09:11;;;;;;;44.53;27.23;;;9.20;85.00;;;;;;4918162;29;20036;-84
2021/04/10 09:11:43;;;;;;;42.83;28.65;;;9.20;85.00;;;;;;4917838;29;20036;-84
2021/04/10 09:14:08;;;;;;;43.50;29.20;;;9.20;85.40;;;;;;4919570;29;20028;-84
2021/04/10 09:16:38;;;;;;;43.38;26.33;;;9.20;85.20;;;;;;4918178;29;20043;-84
2021/04/10 09:19:03;;;;;;;47.22;29.95;;;9.20;85.30;;;;;;4918285;29;20573;-84
2021/04/10 09:21:39;;;;;;;49.53;29.98;;;9.20;85.50;;;;;;4919371;29;20119;-84
2021/04/10 09:24:42;;;;;;;47.53;28.98;;;9.20;85.70;;;;;;4918151;29;20397;-84
2021/04/10 09:27:25;;;;;;;38.47;26.13;;;9.20;85.90;;;;;;4917997;29;20025;-84
2021/04/10 09:29:59;;;;;;;44.33;25.13;;;9.20;85.80;;;;;;4919241;29;20067;-84
2021/04/10 09:32:43;;;;;;;36.42;24.88;;;9.20;85.60;;;;;;4915388;29;20306;-84
2021/04/10 09:35:17;;;;;;;42.33;25.55;;;9.30;85.80;;;;;;4906885;29;20032;-84
2021/04/10 09:37:43;;;;;;;39.95;26.33;;;9.30;85.80;;;;;;4897753;29;20023;-83
2021/04/10 09:40:20;;;;;;;47.47;30.17;;;9.20;85.80;;;;;;4902636;29;20025;-83
2021/04/10 09:42:46;;;;;;;51.88;30.42;;;9.20;85.90;;;;;;4898794;29;20561;-81
2021/04/10 09:45:22;;;;;;;50.83;30.27;;;9.20;86.20;;;;;;4901467;29;20068;-81
2021/04/10 09:50:24;;;;;;;41.90;27.77;;;9.20;86.80;;;;;;4906110;29;20043;-83
2021/04/10 09:52:56;;;;;;;45.88;30.10;;;9.10;86.80;;;;;;4901497;29;20037;-82
2021/04/10 09:55:23;;;;;;;41.63;27.42;;;9.10;87.00;;;;;;4907063;29;20091;-82
2021/04/10 09:57:58;;;;;;;44.55;30.35;;;9.00;87.00;;;;;;4914376;29;20032;-81
2021/04/10 10:00:29;;;;;;;42.28;30.00;;;9.10;87.30;;;;;;4904380;29;20484;-82
2021/04/10 10:02:56;;;;;;;45.83;27.17;;;9.10;87.30;;;;;;4905939;29;20040;-76
2021/04/10 10:05:22;;;;;;;44.42;28.58;;;9.10;87.30;;;;;;4891276;29;20021;-79
2021/04/10 10:07:50;;;;;;;50.88;30.48;;;9.10;87.40;;;;;;4891534;29;20031;-82
2021/04/10 10:10:16;;;;;;;41.35;26.75;;;9.10;87.40;;;;;;4891739;29;20039;-82
2021/04/10 10:12:41;;;;;;;39.97;27.83;;;9.10;87.60;;;;;;4891204;29;20139;-82
2021/04/10 10:15:23;;;;;;;41.90;26.45;;;9.10;87.60;;;;;;4890729;29;20072;-82
2021/04/10 10:17:49;;;;;;;46.63;30.88;;;9.20;87.60;;;;;;4896062;29;20052;-82
2021/04/10 10:20:15;;;;;;;38.38;26.17;;;9.30;87.60;;;;;;4892383;29;20043;-82
2021/04/10 10:22:42;;;;;;;46.28;27.85;;;9.20;87.50;;;;;;4892291;29;20084;-82
2021/04/10 10:25:10;;;;;;;40.38;27.40;;;9.30;87.70;;;;;;4894147;29;20508;-77
2021/04/10 10:27:40;;;;;;;41.15;27.38;;;9.30;87.80;;;;;;4891177;29;20085;-77
2021/04/10 10:30:20;;;;;;;38.72;25.25;;;9.30;87.80;;;;;;4891925;29;20025;-76
2021/04/10 10:32:47;;;;;;;50.42;30.70;;;9.30;87.80;;;;;;4892514;29;20060;-77
2021/04/10 10:35:14;;;;;;;46.03;28.23;;;9.30;87.80;;;;;;4889907;29;20033;-76
2021/04/10 10:37:45;;;;;;;41.85;27.02;;;9.30;88.00;;;;;;4879332;29;20056;-76
2021/04/10 10:40:24;;;;;;;50.65;31.02;;;9.40;88.20;;;;;;4891568;29;20040;-77
2021/04/10 10:43:05;;;;;;;51.67;29.55;;;9.30;88.20;;;;;;4892799;29;20021;-76
2021/04/10 10:45:41;;;;;;;51.05;31.70;;;9.30;88.40;;;;;;4891669;29;20028;-77
2021/04/10 10:48:26;;;;;;;51.92;32.05;;;9.30;88.50;;;;;;4895195;29;20028;-77
2021/04/10 10:50:54;;;;;;;50.33;30.83;;;9.30;88.70;;;;;;4914459;29;20024;-78
2021/04/10 10:53:39;;;;;;;46.97;29.92;;;9.40;88.80;;;;;;4905433;29;20032;-74
2021/04/10 10:56:25;;;;;;;55.03;32.15;;;9.30;88.80;;;;;;4901632;29;20100;-73
2021/04/10 10:58:55;;;;;;;45.67;30.08;;;9.40;88.90;;;;;;4899045;29;20036;-73
2021/04/10 11:01:31;;;;;;;51.65;32.85;;;9.40;88.90;;;;;;4905845;29;20039;-74
2021/04/10 11:03:59;;;;;;;48.22;31.45;;;9.40;89.00;;;;;;4903638;29;20024;-73
2021/04/10 11:06:41;;;;;;;55.45;32.53;;;9.40;89.00;;;;;;4902746;29;20381;-79
2021/04/10 11:09:15;;;;;;;50.63;33.47;;;9.50;89.40;;;;;;4910860;29;20021;-79
2021/04/10 11:11:44;;;;;;;51.10;33.47;;;9.50;89.40;;;;;;4898999;29;20036;-79
2021/04/10 11:14:10;;;;;;;56.00;34.08;;;9.60;89.90;;;;;;4911721;29;20489;-79
2021/04/10 11:16:43;;;;;;;47.97;30.48;;;9.60;89.60;;;;;;4898762;29;20450;-79
2021/04/10 11:19:09;;;;;;;60.33;33.25;;;9.60;89.50;;;;;;4882038;29;20040;-79
2021/04/10 11:21:35;;;;;;;53.90;33.17;;;9.70;89.70;;;;;;4902705;29;20544;-79
2021/04/10 11:24:03;;;;;;;50.63;31.67;;;9.70;89.60;;;;;;4898922;29;20031;-79
2021/04/10 11:26:33;;;;;;;56.95;34.35;;;9.70;89.60;;;;;;4898521;29;20414;-79
2021/04/10 11:29:21;;;;;;;56.30;34.83;;;9.70;89.60;;;;;;4898893;29;20052;-79
2021/04/10 11:32:06;;;;;;;50.28;34.42;;;9.70;89.90;;;;;;4882000;29;20537;-79
2021/04/10 11:34:48;;;;;;;59.13;37.00;;;9.70;89.90;;;;;;4896866;29;20044;-79
2021/04/10 11:37:22;;;;;;;59.45;37.92;;;9.70;89.90;;;;;;4898493;29;20029;-79
2021/04/10 11:39:53;;;;;;;60.80;38.95;;;9.80;90.00;;;;;;4906599;29;20028;-79
2021/04/10 11:42:22;;;;;;;57.30;36.83;;;9.80;90.00;;;;;;4892006;29;20033;-79
2021/04/10 11:44:48;;;;;;;56.20;36.72;;;9.80;90.00;;;;;;4908455;29;20072;-79
2021/04/10 11:47:20;;;;;;;60.40;40.03;;;9.90;90.10;;;;;;4898567;29;20108;-79
2021/04/10 11:49:45;;;;;;;52.70;35.50;;;9.90;90.10;;;;;;4898547;29;20474;-79
2021/04/10 11:52:11;;;;;;;65.38;42.13;;;9.90;90.10;;;;;;4912134;29;20172;-79
2021/04/10 11:54:37;;;;;;;71.47;43.05;;;9.90;90.10;;;;;;4911796;29;20032;-79
2021/04/10 11:57:04;;;;;;;67.05;43.15;;;10.00;90.30;;;;;;4915892;29;20509;-79
2021/04/10 11:59:38;;;;;;;69.80;46.28;;;10.10;90.20;;;;;;4901294;29;20033;-79
2021/04/10 12:02:04;;;;;;;58.60;38.22;;;10.30;90.30;;;;;;4898097;29;20072;-79
2021/04/10 12:04:34;;;;;;;73.07;46.53;;;10.40;90.10;;;;;;4897931;29;20043;-79
2021/04/10 12:07:08;;;;;;;63.95;42.33;;;10.50;90.10;;;;;;4897405;29;20036;-79
2021/04/10 12:09:38;;;;;;;75.72;47.67;;;10.60;90.00;;;;;;4897773;29;20025;-79
2021/04/10 12:12:05;;;;;;;72.22;47.97;;;10.60;90.00;;;;;;4902877;29;20032;-79
2021/04/10 12:14:30;;;;;;;63.90;44.60;;;10.70;89.90;;;;;;4896441;29;20124;-79
2021/04/10 12:16:57;;;;;;;72.68;50.35;;;10.80;89.70;;;;;;4899269;29;20052;-79
2021/04/10 12:19:24;;;;;;;64.88;46.53;;;10.80;89.60;;;;;;4907483;29;20040;-79
2021/04/10 12:21:51;;;;;;;64.60;43.30;;;10.70;89.50;;;;;;4897816;29;20028;-79
2021/04/10 12:24:16;;;;;;;60.88;44.55;;;10.70;89.50;;;;;;4898036;29;20537;-79
2021/04/10 12:26:43;;;;;;;64.07;45.03;;;10.60;89.40;;;;;;4897706;29;20119;-79
2021/04/10 12:29:08;;;;;;;81.63;52.47;;;10.60;89.60;;;;;;4896784;29;20394;-79
2021/04/10 12:31:34;;;;;;;73.72;48.40;;;10.60;89.60;;;;;;4896502;29;20036;-79
2021/04/10 12:34:00;;;;;;;70.53;46.22;;;10.50;89.60;;;;;;4897900;29;20481;-79
2021/04/10 12:36:28;;;;;;;72.03;47.20;;;10.50;89.60;;;;;;4913807;29;20060;-79
2021/04/10 12:38:53;;;;;;;72.72;48.28;;;10.50;89.80;;;;;;4915666;29;20042;-79
2021/04/10 12:41:19;;;;;;;62.92;44.13;;;10.60;89.80;;;;;;4916257;29;20028;-80
2021/04/10 12:43:45;;;;;;;70.32;45.85;;;10.60;89.70;;;;;;4910659;29;20028;-81
2021/04/10 12:46:12;;;;;;;62.65;42.63;;;10.60;89.50;;;;;;4897173;29;20036;-80
2021/04/10 12:48:38;;;;;;;78.85;49.35;;;10.60;89.50;;;;;;4899457;29;20116;-81